РПИ Ашхабад

Руководство

Evgeny Vygornitsky*

Куратор
Инструкторы РПИ
Evgeny Vygornitsky (Supervisor)
Входит в состав
Центральная Азия

Диспетчеры РПИ

Диспетчер Рейтинг Допуски *
begench atayev Unknown UTAA_GND

Аэропорты РПИ

ICAO Город Название Погода
UTAA Ашхабад Ашхабад UTAA 221200Z 24008KT 9999 FEW050CB FEW050 BKN100 31/01 Q1011 R88/CLRD70 NOSIG
UTAM Мары Мары UTAM 221200Z 14004KT CAVOK 34/05 Q1009 R88/CLRD70 NOSIG